Terminal Aerodrome Forecast
Issued by NWS

Home | Current Version | Previous Version | Text Only | Print | Product List | Glossary On
Versions: 1 2 3 4 5 6 7 8 9 10 11 12 13 14 15 16 17 18 19 20 21 22 23 24 25 26
000
FTAK31 PAJN 301404 AAB
TAFASI
TAF AMD
PASI 301404Z 3014/3112 13005KT P6SM -RA FEW005 BKN025 OVC035
      TEMPO 3014/3018 FEW006 OVC035
     FM302000 09006KT 6SM -RA SCT015 OVC025
     FM310600 02004KT 4SM -RA BR FEW005 OVC015=

USA.gov is the U.S. government's official web portal to all federal, state and local government web resources and services.